Time;durP1;ratioP1;P1;durP2;ratioP2;P2;SDS_P1;SDS_P2;PMS_P1;PMS_P2;Temp;Humidity;BMP_temperature;BMP_pressure;BME280_temperature;BME280_humidity;BME280_pressure;Samples;Min_cycle;Max_cycle;Signal;HPM_P1;HPM_P2
2022/08/27 00:00:09;;;;;;;14.00;8.25;;;19.30;99.90;;;;;;12498582;28;20045;-83
2022/08/27 00:06:14;;;;;;;17.85;8.82;;;19.30;99.90;;;;;;12486398;28;20461;-85
2022/08/27 00:12:17;;;;;;;21.20;8.57;;;19.40;99.90;;;;;;12489125;28;20470;-84
2022/08/27 00:18:19;;;;;;;14.23;8.57;;;19.40;99.90;;;;;;12488324;28;20052;-84
2022/08/27 00:24:23;;;;;;;;;;;19.30;99.90;;;;;;12486125;28;20042;-84
2022/08/27 00:30:25;;;;;;;22.40;7.82;;;19.30;99.90;;;;;;12480550;28;19921;-84
2022/08/27 00:36:27;;;;;;;19.13;7.20;;;19.20;99.90;;;;;;12485956;28;20068;-84
2022/08/27 00:42:30;;;;;;;16.08;7.30;;;19.40;99.90;;;;;;12499198;28;20050;-84
2022/08/27 00:48:35;;;;;;;16.77;8.43;;;19.10;99.90;;;;;;12486547;28;20053;-84
2022/08/27 00:54:37;;;;;;;15.35;7.55;;;19.20;99.90;;;;;;12492902;28;20116;-84
2022/08/27 01:00:39;;;;;;;18.13;7.85;;;19.20;99.90;;;;;;12486216;28;20045;-85
2022/08/27 01:06:41;;;;;;;17.75;8.05;;;19.20;99.90;;;;;;12490317;28;20064;-84
2022/08/27 01:12:44;;;;;;;15.50;8.48;;;19.10;99.90;;;;;;12481547;28;20033;-84
2022/08/27 01:18:56;;;;;;;14.38;7.68;;;19.00;99.90;;;;;;12486031;28;20057;-85
2022/08/27 01:25:16;;;;;;;17.98;7.82;;;19.00;99.90;;;;;;12507170;28;20044;-85
2022/08/27 01:31:21;;;;;;;14.13;6.47;;;18.90;99.90;;;;;;12495652;28;20045;-84
2022/08/27 01:37:25;;;;;;;14.45;6.82;;;18.80;99.90;;;;;;12484840;28;20045;-84
2022/08/27 01:43:30;;;;;;;18.40;6.18;;;18.90;99.90;;;;;;12467171;28;20087;-84
2022/08/27 01:49:32;;;;;;;14.82;5.38;;;18.60;99.90;;;;;;12497317;28;20046;-84
2022/08/27 01:55:34;;;;;;;22.77;5.28;;;18.70;99.90;;;;;;12499352;28;20055;-84
2022/08/27 02:01:38;;;;;;;16.63;5.40;;;18.70;99.90;;;;;;12471081;28;20132;-84
2022/08/27 02:07:40;;;;;;;12.32;4.80;;;18.80;99.90;;;;;;12493797;28;20125;-84
2022/08/27 02:13:43;;;;;;;12.00;4.65;;;18.60;99.90;;;;;;12485825;28;20053;-84
2022/08/27 02:19:45;;;;;;;17.42;5.00;;;18.70;99.90;;;;;;12494169;28;20053;-83
2022/08/27 02:25:46;;;;;;;14.52;4.80;;;18.60;99.90;;;;;;12490018;28;20044;-84
2022/08/27 02:31:49;;;;;;;8.23;4.25;;;18.50;99.90;;;;;;12465771;28;20052;-84
2022/08/27 02:37:52;;;;;;;8.93;4.10;;;18.70;99.90;;;;;;12500219;28;20049;-84
2022/08/27 02:43:54;;;;;;;14.35;4.20;;;18.70;99.90;;;;;;12473768;28;20041;-84
2022/08/27 02:49:56;;;;;;;11.68;4.60;;;18.50;99.90;;;;;;12473176;28;20073;-83
2022/08/27 02:55:58;;;;;;;13.85;3.83;;;18.60;99.90;;;;;;12480458;28;20052;-84
2022/08/27 03:02:00;;;;;;;16.08;3.30;;;18.50;99.90;;;;;;12503339;28;20046;-85
2022/08/27 03:08:04;;;;;;;9.63;3.05;;;18.50;99.90;;;;;;12482038;28;20127;-84
2022/08/27 03:14:07;;;;;;;10.32;2.70;;;18.50;99.90;;;;;;12491686;28;20051;-84
2022/08/27 03:20:11;;;;;;;11.53;2.53;;;18.50;99.90;;;;;;12514610;28;20044;-84
2022/08/27 03:26:13;;;;;;;13.45;2.30;;;18.50;99.90;;;;;;12494601;28;20041;-84
2022/08/27 03:32:15;;;;;;;9.00;1.80;;;18.50;99.90;;;;;;12515147;28;20049;-83
2022/08/27 03:38:18;;;;;;;7.35;1.85;;;18.30;99.90;;;;;;12510439;28;20152;-84
2022/08/27 03:44:23;;;;;;;9.70;2.05;;;18.30;99.90;;;;;;12509656;28;20500;-84
2022/08/27 03:50:26;;;;;;;9.13;2.00;;;18.40;99.90;;;;;;12503429;28;20061;-83
2022/08/27 03:56:28;;;;;;;9.65;2.10;;;18.30;99.90;;;;;;12498171;28;20134;-84
2022/08/27 04:02:31;;;;;;;7.53;2.47;;;18.20;99.90;;;;;;12508242;28;20052;-83
2022/08/27 04:08:33;;;;;;;6.15;2.30;;;18.20;99.90;;;;;;12478531;28;20057;-84
2022/08/27 04:14:35;;;;;;;12.23;2.20;;;18.20;99.90;;;;;;12487018;28;20055;-83
2022/08/27 04:20:37;;;;;;;9.68;2.10;;;18.20;99.90;;;;;;12486685;28;20084;-84
2022/08/27 04:26:41;;;;;;;7.97;1.40;;;18.10;99.90;;;;;;12478821;28;20060;-83
2022/08/27 04:32:43;;;;;;;6.07;1.52;;;18.20;99.90;;;;;;12421154;28;20058;-84
2022/08/27 04:38:45;;;;;;;7.35;1.60;;;18.10;99.90;;;;;;12420081;28;20046;-83
2022/08/27 04:44:47;;;;;;;7.03;1.50;;;18.20;99.90;;;;;;12399521;28;20229;-83
2022/08/27 04:50:50;;;;;;;7.43;1.52;;;18.10;99.90;;;;;;12403978;28;20038;-84
2022/08/27 04:56:52;;;;;;;6.00;1.67;;;18.30;99.90;;;;;;12426423;28;20073;-83
2022/08/27 05:02:54;;;;;;;8.07;1.48;;;18.30;99.90;;;;;;12423527;28;20069;-84
2022/08/27 05:08:56;;;;;;;8.65;1.63;;;18.30;99.90;;;;;;12421156;28;20050;-83
2022/08/27 05:14:58;;;;;;;10.27;2.67;;;18.20;99.90;;;;;;12402078;28;20038;-83
2022/08/27 05:21:02;;;;;;;9.73;1.48;;;18.10;99.90;;;;;;12419750;28;20045;-83
2022/08/27 05:27:05;;;;;;;9.85;1.98;;;18.20;99.90;;;;;;12400356;28;20491;-84
2022/08/27 05:33:13;;;;;;;7.82;1.50;;;18.10;99.90;;;;;;12439033;28;20038;-83
2022/08/27 05:39:16;;;;;;;9.10;1.55;;;18.10;99.90;;;;;;12465204;28;20053;-83
2022/08/27 05:45:18;;;;;;;5.40;1.47;;;18.20;99.90;;;;;;12472205;28;20046;-83
2022/08/27 05:51:27;;;;;;;8.23;1.33;;;17.90;99.90;;;;;;12456435;28;20046;-83
2022/08/27 05:57:29;;;;;;;9.98;1.67;;;18.10;99.90;;;;;;12432369;28;20039;-84
2022/08/27 06:03:36;;;;;;;11.45;1.95;;;18.10;99.90;;;;;;12431655;28;20104;-84
2022/08/27 06:09:45;;;;;;;7.78;2.75;;;18.00;99.90;;;;;;12466745;28;20057;-83
2022/08/27 06:15:48;;;;;;;9.25;1.77;;;18.20;99.90;;;;;;12462093;28;20045;-83
2022/08/27 06:21:53;;;;;;;16.27;1.90;;;18.20;99.90;;;;;;12471787;28;20058;-84
2022/08/27 06:28:12;;;;;;;3.80;1.50;;;17.60;99.90;;;;;;12456099;28;20050;-84
2022/08/27 06:34:14;;;;;;;;;;;18.00;99.90;;;;;;12461507;28;20041;-83
2022/08/27 06:40:16;;;;;;;6.82;2.10;;;17.90;99.90;;;;;;12470050;28;19925;-83
2022/08/27 06:46:22;;;;;;;7.22;1.98;;;18.20;99.90;;;;;;12464742;28;20038;-83
2022/08/27 06:52:24;;;;;;;7.95;1.60;;;18.10;99.90;;;;;;12461896;28;20053;-84
2022/08/27 06:58:26;;;;;;;7.95;1.60;;;18.20;99.90;;;;;;12467082;28;20046;-84
2022/08/27 07:04:28;;;;;;;10.82;1.90;;;17.80;99.90;;;;;;12442568;28;20064;-86
2022/08/27 07:10:33;;;;;;;15.68;2.08;;;17.90;99.90;;;;;;12453493;28;20046;-86
2022/08/27 07:16:36;;;;;;;33.65;3.20;;;17.80;99.90;;;;;;12455915;28;20043;-88
2022/08/27 07:22:44;;;;;;;8.80;1.58;;;17.80;99.90;;;;;;12455996;28;20061;-85
2022/08/27 07:28:46;;;;;;;10.43;2.00;;;18.00;99.90;;;;;;12441506;28;1151400;-84
2022/08/27 07:34:51;;;;;;;16.40;2.50;;;18.10;99.90;;;;;;12503862;28;20066;-85
2022/08/27 07:40:53;;;;;;;15.18;2.38;;;18.00;99.90;;;;;;12501966;28;20050;-85
2022/08/27 07:46:57;;;;;;;59.13;5.97;;;18.00;99.90;;;;;;12515892;28;20049;-83
2022/08/27 07:53:00;;;;;;;45.08;5.05;;;18.00;99.90;;;;;;12510478;28;20056;-84
2022/08/27 07:59:02;;;;;;;92.10;8.13;;;18.20;99.90;;;;;;12494213;28;20068;-84
2022/08/27 08:05:05;;;;;;;16.70;2.55;;;18.10;99.90;;;;;;12517806;28;20560;-84
2022/08/27 08:11:09;;;;;;;5.63;2.30;;;18.20;99.90;;;;;;12506380;28;20517;-84
2022/08/27 08:17:11;;;;;;;8.80;1.95;;;18.30;99.90;;;;;;12488269;28;20080;-84
2022/08/27 08:23:18;;;;;;;156.68;15.40;;;18.10;99.90;;;;;;12489260;28;20052;-85
2022/08/27 08:29:20;;;;;;;124.53;12.55;;;18.00;99.90;;;;;;12488230;28;20075;-83
2022/08/27 08:35:23;;;;;;;59.47;8.93;;;18.10;99.90;;;;;;12495710;28;20045;-85
2022/08/27 08:41:49;;;;;;;50.38;5.63;;;18.00;99.90;;;;;;12482467;28;20045;-84
2022/08/27 08:48:03;;;;;;;11.13;3.08;;;18.10;99.90;;;;;;12476147;28;20073;-83
2022/08/27 08:54:22;;;;;;;11.85;2.38;;;18.20;99.90;;;;;;12493315;28;20045;-83
2022/08/27 09:00:27;;;;;;;13.75;2.75;;;18.30;99.90;;;;;;12506352;28;20056;-83
2022/08/27 09:07:04;;;;;;;9.38;2.38;;;18.20;99.90;;;;;;12489603;28;20072;-83
2022/08/27 09:13:18;;;;;;;6.97;2.15;;;18.20;99.90;;;;;;12477503;28;20041;-83
2022/08/27 09:19:20;;;;;;;8.15;1.80;;;17.80;99.90;;;;;;12496398;28;20520;-82
2022/08/27 09:25:31;;;;;;;7.70;1.83;;;17.90;99.90;;;;;;12486818;28;20052;-82
2022/08/27 09:31:39;;;;;;;5.72;1.98;;;17.90;99.90;;;;;;12476630;28;20037;-83
2022/08/27 09:37:44;;;;;;;12.10;2.75;;;17.60;99.90;;;;;;12503352;28;20045;-83
2022/08/27 09:44:00;;;;;;;9.50;2.28;;;17.50;99.90;;;;;;12494372;28;20048;-83
2022/08/27 09:50:07;;;;;;;8.77;2.60;;;17.70;99.90;;;;;;12468737;28;20049;-83
2022/08/27 09:56:19;;;;;;;8.45;2.63;;;17.70;99.90;;;;;;12489574;28;20046;-83
2022/08/27 10:02:24;;;;;;;6.13;2.45;;;17.50;99.90;;;;;;12480974;28;20064;-83
2022/08/27 10:08:37;;;;;;;7.78;3.10;;;17.50;99.90;;;;;;12492439;28;20045;-84
2022/08/27 10:14:44;;;;;;;7.60;2.80;;;17.10;99.90;;;;;;12460929;28;20416;-85
2022/08/27 10:20:58;;;;;;;6.32;2.80;;;16.90;99.90;;;;;;12467401;28;20057;-84
2022/08/27 10:27:42;;;;;;;10.57;3.22;;;16.90;99.90;;;;;;12485236;28;20053;-84
2022/08/27 10:33:54;;;;;;;8.75;2.85;;;16.80;99.90;;;;;;12522951;28;20048;-84
2022/08/27 10:40:08;;;;;;;10.20;2.88;;;17.00;99.90;;;;;;12480697;28;20094;-84
2022/08/27 10:46:30;;;;;;;10.80;3.53;;;16.90;99.90;;;;;;12481757;28;20128;-85
2022/08/27 10:52:44;;;;;;;8.88;3.88;;;17.00;99.90;;;;;;12485274;28;20053;-85
2022/08/27 10:59:11;;;;;;;11.15;3.83;;;17.00;99.90;;;;;;12463263;28;20136;-84
2022/08/27 11:05:24;;;;;;;8.10;3.50;;;16.90;99.90;;;;;;12475363;28;20199;-84
2022/08/27 11:11:38;;;;;;;9.93;3.65;;;17.20;99.90;;;;;;12463287;28;20041;-85
2022/08/27 11:18:19;;;;;;;;;;;17.10;99.90;;;;;;12467685;28;20044;-84
2022/08/27 11:24:30;;;;;;;10.15;3.75;;;17.10;99.90;;;;;;12496658;28;19921;-85
2022/08/27 11:30:56;;;;;;;10.93;3.70;;;17.30;99.90;;;;;;12467024;28;20517;-84
2022/08/27 11:37:31;;;;;;;12.50;3.60;;;17.20;99.90;;;;;;12464184;28;20053;-84
2022/08/27 11:43:35;;;;;;;12.35;3.33;;;17.30;99.90;;;;;;12489177;28;20045;-84
2022/08/27 11:49:45;;;;;;;9.52;3.35;;;17.30;99.90;;;;;;12497579;28;20425;-84
2022/08/27 11:55:47;;;;;;;9.20;3.28;;;17.50;99.90;;;;;;12473194;28;20056;-84
2022/08/27 12:01:52;;;;;;;12.70;3.30;;;17.70;99.90;;;;;;12493568;28;20041;-84
2022/08/27 12:07:54;;;;;;;10.30;3.70;;;17.60;99.90;;;;;;12472664;28;20057;-84
2022/08/27 12:14:41;;;;;;;7.97;2.95;;;17.80;99.90;;;;;;12472545;28;20037;-84
2022/08/27 12:20:56;;;;;;;10.52;3.20;;;17.60;99.90;;;;;;12457632;28;20136;-85
2022/08/27 12:27:12;;;;;;;13.55;3.35;;;17.70;99.90;;;;;;12490344;28;20054;-84
2022/08/27 12:33:30;;;;;;;9.90;3.22;;;17.90;99.90;;;;;;12404379;28;20049;-83
2022/08/27 12:39:38;;;;;;;17.55;4.18;;;18.10;99.90;;;;;;12393213;28;20081;-84
2022/08/27 12:45:47;;;;;;;10.13;3.53;;;18.20;99.90;;;;;;12434295;28;20046;-84
2022/08/27 12:51:50;;;;;;;7.82;3.70;;;18.10;99.90;;;;;;12425257;28;20410;-83
2022/08/27 12:58:15;;;;;;;18.38;3.78;;;18.30;99.90;;;;;;12411089;28;20057;-83
2022/08/27 13:04:24;;;;;;;22.35;3.75;;;18.70;99.90;;;;;;12401422;28;20057;-84
2022/08/27 13:10:31;;;;;;;12.35;3.55;;;18.50;99.90;;;;;;12403596;28;20057;-83
2022/08/27 13:16:34;;;;;;;11.85;2.80;;;18.60;99.90;;;;;;12427957;28;20066;-83
2022/08/27 13:22:42;;;;;;;8.25;3.38;;;18.80;99.90;;;;;;12379664;28;20065;-83
2022/08/27 13:28:44;;;;;;;9.00;2.75;;;19.00;99.90;;;;;;12427345;28;20056;-83
2022/08/27 13:34:46;;;;;;;9.23;3.20;;;19.00;99.90;;;;;;12476514;28;20417;-83
2022/08/27 13:40:59;;;;;;;8.30;2.35;;;19.00;99.90;;;;;;12500069;28;20061;-84
2022/08/27 13:47:20;;;;;;;7.30;1.90;;;19.10;99.90;;;;;;12507159;28;20068;-83
2022/08/27 13:59:49;;;;;;;9.88;2.05;;;18.70;99.90;;;;;;12502425;28;20045;-83
2022/08/27 14:05:52;;;;;;;7.10;2.10;;;19.00;99.90;;;;;;12475996;28;20045;-83
2022/08/27 14:12:03;;;;;;;7.00;2.00;;;18.90;99.90;;;;;;12497656;28;20045;-82
2022/08/27 14:18:19;;;;;;;9.25;2.00;;;18.80;99.90;;;;;;12507522;28;20056;-82
2022/08/27 14:24:37;;;;;;;7.53;1.83;;;18.90;99.90;;;;;;12468651;28;20620;-83
2022/08/27 14:30:39;;;;;;;9.57;2.65;;;19.10;99.90;;;;;;12477127;28;20498;-82
2022/08/27 14:36:42;;;;;;;7.43;1.88;;;19.10;99.90;;;;;;12476834;28;20057;-83
2022/08/27 14:42:45;;;;;;;11.07;1.80;;;19.30;99.90;;;;;;12494322;28;20049;-83
2022/08/27 14:48:47;;;;;;;7.07;1.80;;;18.90;99.90;;;;;;12501585;28;20046;-82
2022/08/27 14:54:52;;;;;;;9.07;1.92;;;19.30;99.90;;;;;;12482454;28;21274;-82
2022/08/27 15:00:56;;;;;;;9.25;1.67;;;19.30;99.90;;;;;;12494656;28;20030;-82
2022/08/27 15:06:59;;;;;;;6.22;1.42;;;19.30;99.90;;;;;;12474925;28;20417;-82
2022/08/27 15:13:04;;;;;;;5.82;1.30;;;19.10;99.90;;;;;;12511764;28;20053;-83
2022/08/27 15:19:08;;;;;;;10.35;2.25;;;19.30;99.90;;;;;;12509390;28;20044;-83
2022/08/27 15:25:12;;;;;;;8.98;1.73;;;19.30;99.90;;;;;;12493369;28;20049;-83
2022/08/27 15:31:14;;;;;;;8.15;1.90;;;19.40;99.90;;;;;;12657524;22;20057;-79
2022/08/27 15:37:17;;;;;;;10.15;2.47;;;19.20;99.90;;;;;;12387659;28;20046;-80
2022/08/27 15:43:23;;;;;;;7.70;1.63;;;19.20;99.90;;;;;;12384619;28;20539;-80
2022/08/27 15:49:25;;;;;;;8.60;1.73;;;19.10;99.90;;;;;;12375076;28;20104;-80
2022/08/27 15:55:30;;;;;;;9.50;1.77;;;19.20;99.90;;;;;;12382453;28;20088;-80
2022/08/27 16:01:35;;;;;;;10.38;1.60;;;19.10;99.90;;;;;;12403712;28;20053;-79
2022/08/27 16:07:37;;;;;;;6.35;1.52;;;19.30;99.90;;;;;;12396486;28;20383;-80
2022/08/27 16:13:41;;;;;;;7.32;1.63;;;19.50;99.90;;;;;;12405356;28;20141;-79
2022/08/27 16:19:42;;;;;;;8.82;1.30;;;19.30;99.90;;;;;;12393984;28;20050;-79
2022/08/27 16:25:44;;;;;;;9.30;2.55;;;19.10;99.90;;;;;;12404745;28;20095;-78
2022/08/27 16:31:46;;;;;;;6.45;1.75;;;19.20;99.90;;;;;;12372968;28;20133;-80
2022/08/27 16:37:51;;;;;;;;;;;19.30;99.90;;;;;;12338865;28;20178;-79
2022/08/27 16:43:53;;;;;;;6.45;1.52;;;19.30;99.90;;;;;;12336115;28;19926;-79
2022/08/27 16:56:26;;;;;;;7.90;1.83;;;19.20;99.90;;;;;;12332740;28;20173;-79
2022/08/27 17:02:33;;;;;;;9.02;1.45;;;19.50;99.90;;;;;;12317274;28;20054;-79
2022/08/27 17:08:35;;;;;;;9.32;1.98;;;19.20;99.90;;;;;;12334228;28;20414;-79
2022/08/27 17:14:51;;;;;;;9.57;1.77;;;19.10;99.90;;;;;;12318437;28;20054;-79
2022/08/27 17:20:54;;;;;;;7.18;1.42;;;19.20;99.90;;;;;;12333801;28;20051;-79
2022/08/27 17:26:56;;;;;;;;;;;19.00;99.90;;;;;;12340980;28;20127;-80
2022/08/27 17:32:58;;;;;;;6.85;1.20;;;19.10;99.90;;;;;;12331072;28;20017;-80
2022/08/27 17:39:01;;;;;;;9.60;1.75;;;19.30;99.90;;;;;;12387252;28;20054;-80
2022/08/27 17:45:04;;;;;;;3.80;0.90;;;19.40;99.90;;;;;;12375261;28;20042;-80
2022/08/27 17:51:11;;;;;;;8.68;1.60;;;19.10;99.90;;;;;;12370935;28;20352;-80
2022/08/27 17:57:17;;;;;;;6.40;1.30;;;19.30;99.90;;;;;;12360150;28;20544;-80
2022/08/27 18:03:19;;;;;;;8.23;1.75;;;19.00;99.90;;;;;;12363101;28;20057;-80
2022/08/27 18:09:21;;;;;;;4.88;1.45;;;19.00;99.90;;;;;;12380171;28;20094;-80
2022/08/27 18:15:26;;;;;;;5.10;1.52;;;18.90;99.90;;;;;;12364635;28;20058;-80
2022/08/27 18:21:28;;;;;;;7.03;1.75;;;19.10;99.90;;;;;;12347752;28;20161;-80
2022/08/27 18:27:32;;;;;;;6.50;1.73;;;19.20;99.90;;;;;;12358783;28;21248;-80
2022/08/27 18:33:35;;;;;;;6.35;1.50;;;18.90;99.90;;;;;;12388905;28;20042;-80
2022/08/27 18:39:38;;;;;;;7.27;1.80;;;19.20;99.90;;;;;;12394210;28;20137;-79
2022/08/27 18:45:40;;;;;;;8.63;1.45;;;18.80;99.90;;;;;;12396222;28;20046;-79
2022/08/27 18:51:43;;;;;;;7.20;1.55;;;18.80;99.90;;;;;;12388457;28;20627;-79
2022/08/27 18:57:51;;;;;;;7.70;1.60;;;18.90;99.90;;;;;;12396849;28;20498;-79
2022/08/27 19:03:55;;;;;;;8.70;1.50;;;18.80;99.90;;;;;;12388611;28;20177;-79
2022/08/27 19:09:57;;;;;;;6.63;1.17;;;18.70;99.90;;;;;;12534784;23;20049;-79
2022/08/27 19:16:39;;;;;;;7.65;1.60;;;18.60;99.90;;;;;;12520210;22;20085;-34
2022/08/27 19:22:42;;;;;;;8.35;1.50;;;18.60;99.90;;;;;;12491366;28;20041;-33
2022/08/27 19:28:44;;;;;;;9.20;1.90;;;18.60;99.90;;;;;;12480872;28;20136;-34
2022/08/27 19:34:46;;;;;;;8.50;1.50;;;18.40;99.90;;;;;;12482919;28;20050;-33
2022/08/27 19:40:48;;;;;;;6.13;1.17;;;18.30;99.90;;;;;;12486026;28;20049;-33
2022/08/27 19:46:51;;;;;;;5.30;1.35;;;18.20;99.90;;;;;;12486015;28;20053;-33
2022/08/27 19:52:53;;;;;;;9.57;1.85;;;18.30;99.90;;;;;;12488566;28;20111;-33
2022/08/27 19:58:55;;;;;;;6.82;1.80;;;18.30;99.90;;;;;;12481632;28;20046;-33
2022/08/27 20:05:06;;;;;;;8.55;1.88;;;18.10;99.90;;;;;;12481851;28;20046;-34
2022/08/27 20:11:22;;;;;;;6.57;1.80;;;18.00;99.90;;;;;;12479636;28;20056;-33
2022/08/27 20:17:24;;;;;;;7.15;2.70;;;17.90;99.90;;;;;;12486437;28;20069;-33
2022/08/27 20:23:27;;;;;;;13.57;2.63;;;17.90;99.90;;;;;;12496330;28;20140;-33
2022/08/27 20:29:30;;;;;;;14.63;2.35;;;17.70;99.90;;;;;;12487085;28;20073;-33
2022/08/27 20:35:36;;;;;;;13.65;2.60;;;17.60;99.90;;;;;;12491080;28;20136;-33
2022/08/27 20:41:40;;;;;;;10.30;2.50;;;17.60;99.90;;;;;;12492579;28;20056;-33
2022/08/27 20:47:46;;;;;;;9.83;2.57;;;17.50;99.90;;;;;;12483886;28;20076;-33
2022/08/27 20:53:48;;;;;;;11.63;2.80;;;17.40;99.90;;;;;;12487747;28;20048;-34
2022/08/27 21:06:10;;;;;;;8.20;2.40;;;17.40;99.90;;;;;;12495907;28;20086;-33
2022/08/27 21:12:12;;;;;;;10.32;2.40;;;17.40;99.90;;;;;;12494052;28;20088;-33
2022/08/27 21:18:24;;;;;;;13.23;2.90;;;17.10;99.90;;;;;;12489512;28;20076;-33
2022/08/27 21:24:30;;;;;;;12.40;2.58;;;17.20;99.90;;;;;;12491028;28;20045;-33
2022/08/27 21:30:35;;;;;;;11.77;2.90;;;17.10;99.90;;;;;;12496025;28;20053;-33
2022/08/27 21:36:37;;;;;;;7.03;2.33;;;17.20;99.90;;;;;;12484189;28;20133;-33
2022/08/27 21:42:39;;;;;;;12.10;2.88;;;17.10;99.90;;;;;;12484157;28;20354;-33
2022/08/27 21:48:41;;;;;;;13.02;3.08;;;17.00;99.90;;;;;;12482437;28;20204;-33
2022/08/27 21:54:43;;;;;;;12.15;3.15;;;16.90;99.90;;;;;;12485167;28;20188;-33
2022/08/27 22:00:47;;;;;;;10.50;2.88;;;16.80;99.90;;;;;;12476850;28;20144;-33
2022/08/27 22:06:49;;;;;;;20.05;3.38;;;16.90;99.90;;;;;;12482799;28;20045;-33
2022/08/27 22:12:55;;;;;;;16.02;3.20;;;16.90;99.90;;;;;;12475429;28;20491;-33
2022/08/27 22:19:00;;;;;;;10.48;3.20;;;17.00;99.90;;;;;;12487785;28;20053;-33
2022/08/27 22:25:04;;;;;;;14.05;3.42;;;16.80;99.90;;;;;;12479638;28;20040;-33
2022/08/27 22:31:06;;;;;;;8.98;2.58;;;16.80;99.90;;;;;;12486361;28;20081;-33
2022/08/27 22:37:08;;;;;;;12.52;2.88;;;16.80;99.90;;;;;;12488546;28;20048;-33
2022/08/27 22:43:10;;;;;;;10.38;2.88;;;16.70;99.90;;;;;;12484291;28;20045;-33
2022/08/27 22:49:12;;;;;;;9.32;3.20;;;16.60;99.90;;;;;;12482918;28;20124;-33
2022/08/27 22:55:18;;;;;;;11.15;3.35;;;16.50;99.90;;;;;;12485223;28;20087;-33
2022/08/27 23:01:21;;;;;;;11.13;3.20;;;16.60;99.90;;;;;;12482386;28;20045;-33
2022/08/27 23:07:23;;;;;;;11.43;3.13;;;16.50;99.90;;;;;;12486911;28;20152;-33
2022/08/27 23:13:25;;;;;;;10.77;3.20;;;16.50;99.90;;;;;;12484437;28;20091;-33
2022/08/27 23:19:29;;;;;;;9.88;3.38;;;16.50;99.90;;;;;;12491105;28;20524;-33
2022/08/27 23:31:51;;;;;;;18.88;3.80;;;16.40;99.90;;;;;;12486396;28;20061;-33
2022/08/27 23:37:54;;;;;;;15.02;3.17;;;16.40;99.90;;;;;;12486192;28;20050;-33
2022/08/27 23:43:56;;;;;;;10.52;3.10;;;16.30;99.90;;;;;;12488301;28;20049;-33
2022/08/27 23:49:57;;;;;;;12.35;3.05;;;16.30;99.90;;;;;;12486714;28;20081;-33
2022/08/27 23:55:59;;;;;;;12.68;3.72;;;16.10;99.90;;;;;;12488734;28;20091;-33
